createdAt,value
2018-07-04T00:01:52.490Z,64.48
2018-07-04T00:05:15.242Z,64.38
2018-07-04T00:08:38.044Z,65.17
2018-07-04T00:11:59.718Z,64.72
2018-07-04T00:15:21.451Z,64.18
2018-07-04T00:18:43.674Z,64.53
2018-07-04T00:22:06.390Z,65.12
2018-07-04T00:25:28.243Z,65.54
2018-07-04T00:28:49.987Z,65.05
2018-07-04T00:32:11.756Z,65.32
2018-07-04T00:35:33.601Z,65.68
2018-07-04T00:38:55.348Z,65.53
2018-07-04T00:42:17.314Z,65.42
2018-07-04T00:45:39.246Z,65.51
2018-07-04T00:49:02.065Z,65.49
2018-07-04T00:52:24.935Z,66.24
2018-07-04T00:55:47.466Z,65.94
2018-07-04T00:59:10.059Z,65.82
2018-07-04T01:02:32.760Z,66.20
2018-07-04T01:05:54.517Z,66.02
2018-07-04T01:09:16.278Z,66.68
2018-07-04T01:12:38.668Z,66.07
2018-07-04T01:16:00.642Z,66.68
2018-07-04T01:19:22.584Z,66.08
2018-07-04T01:22:44.489Z,66.19
2018-07-04T01:26:06.315Z,66.60
2018-07-04T01:29:28.793Z,66.64
2018-07-04T01:32:51.497Z,66.67
2018-07-04T01:36:13.424Z,67.14
2018-07-04T01:39:35.201Z,66.25
2018-07-04T01:42:58.123Z,66.46
2018-07-04T01:46:19.801Z,66.73
2018-07-04T01:49:41.428Z,67.48
2018-07-04T01:53:03.265Z,67.17
2018-07-04T01:56:25.716Z,66.76
2018-07-04T01:59:48.195Z,67.34
2018-07-04T02:03:10.660Z,67.18
2018-07-04T02:06:33.472Z,67.36
2018-07-04T02:09:56.145Z,67.77
2018-07-04T02:13:18.886Z,68.09
2018-07-04T02:16:41.553Z,67.75
2018-07-04T02:20:04.081Z,67.25
2018-07-04T02:23:25.737Z,67.28
2018-07-04T02:26:47.689Z,67.65
2018-07-04T02:30:09.441Z,68.29
2018-07-04T02:33:31.350Z,68.21
2018-07-04T02:40:09.870Z,68.39
2018-07-04T02:43:31.664Z,68.00
2018-07-04T02:46:53.650Z,68.22
2018-07-04T02:50:15.309Z,67.98
2018-07-04T02:53:37.696Z,68.23
2018-07-04T02:56:59.687Z,68.93
2018-07-04T03:00:32.990Z,68.64
2018-07-04T03:04:15.607Z,68.95
2018-07-04T03:07:44.129Z,68.87
2018-07-04T03:11:06.029Z,69.27
2018-07-04T03:14:27.757Z,68.20
2018-07-04T03:17:49.624Z,68.88
2018-07-04T03:21:11.349Z,68.51
2018-07-04T03:24:33.101Z,68.45
2018-07-04T03:27:55.103Z,69.19
2018-07-04T03:31:17.919Z,68.66
2018-07-04T03:34:39.664Z,68.64
2018-07-04T03:38:01.593Z,68.90
2018-07-04T03:41:23.236Z,68.80
2018-07-04T03:44:45.010Z,69.38
2018-07-04T03:48:06.896Z,68.61
2018-07-04T03:51:29.726Z,68.99
2018-07-04T03:54:52.413Z,69.82
2018-07-04T03:58:15.151Z,69.25
2018-07-04T04:01:36.981Z,68.58
2018-07-04T04:04:58.788Z,69.04
2018-07-04T04:08:20.596Z,69.09
2018-07-04T04:11:42.513Z,69.30
2018-07-04T04:15:04.351Z,68.80
2018-07-04T04:18:26.223Z,69.95
2018-07-04T04:21:49.048Z,68.77
2018-07-04T04:25:14.394Z,68.59
2018-07-04T04:28:37.961Z,68.65
2018-07-04T04:32:00.512Z,68.91
2018-07-04T04:35:23.305Z,68.13
2018-07-04T04:38:45.988Z,68.53
2018-07-04T04:42:07.991Z,68.04
2018-07-04T04:45:30.884Z,68.22
2018-07-04T04:48:52.565Z,68.33
2018-07-04T04:52:14.738Z,68.88
2018-07-04T04:55:36.442Z,69.37
2018-07-04T04:58:58.269Z,68.55
2018-07-04T05:02:21.165Z,69.12
2018-07-04T05:05:43.756Z,69.29
2018-07-04T05:09:06.505Z,70.66
2018-07-04T05:12:29.233Z,69.17
2018-07-04T05:15:51.090Z,68.86
2018-07-04T05:19:13.102Z,70.90
2018-07-04T05:22:35.789Z,69.78
2018-07-04T05:25:57.457Z,71.69
2018-07-04T05:29:19.158Z,70.80
2018-07-04T05:32:40.895Z,69.66
2018-07-04T05:36:02.538Z,69.64
2018-07-04T05:39:24.538Z,69.11
2018-07-04T05:42:47.149Z,69.36
2018-07-04T05:46:09.749Z,68.77
2018-07-04T05:49:32.560Z,68.98
2018-07-04T05:52:55.439Z,68.46
2018-07-04T05:56:17.336Z,68.67
2018-07-04T05:59:40.145Z,69.36
2018-07-04T06:03:02.005Z,69.36
2018-07-04T06:06:23.880Z,68.64
2018-07-04T06:09:46.632Z,68.22
2018-07-04T06:13:09.265Z,69.00
2018-07-04T06:19:45.928Z,68.04
2018-07-04T06:23:07.918Z,68.74
2018-07-04T06:26:29.809Z,68.26
2018-07-04T06:29:52.762Z,68.51
2018-07-04T06:33:15.387Z,68.57
2018-07-04T06:36:38.010Z,68.13
2018-07-04T06:39:49.628Z,68.54
2018-07-04T06:42:53.136Z,67.51
2018-07-04T06:45:56.642Z,68.19
2018-07-04T06:49:00.987Z,68.51
2018-07-04T06:52:04.562Z,68.15
2018-07-04T06:55:08.589Z,67.92
2018-07-04T06:58:12.121Z,67.34
2018-07-04T07:01:16.025Z,67.45
2018-07-04T07:04:31.780Z,66.79
2018-07-04T07:07:54.179Z,66.79
2018-07-04T07:11:16.943Z,66.57
2018-07-04T07:14:38.717Z,66.84
2018-07-04T07:18:00.502Z,67.43
2018-07-04T07:21:23.314Z,68.28
2018-07-04T07:24:45.311Z,68.11
2018-07-04T07:28:07.968Z,67.49
2018-07-04T07:31:29.980Z,66.67
2018-07-04T07:34:52.608Z,67.38
2018-07-04T07:38:14.426Z,67.92
2018-07-04T07:41:36.328Z,66.55
2018-07-04T07:44:58.179Z,66.97
2018-07-04T07:48:20.098Z,67.15
2018-07-04T07:51:41.768Z,66.23
2018-07-04T07:55:03.429Z,66.55
2018-07-04T07:58:25.271Z,66.71
2018-07-04T08:01:47.563Z,67.90
2018-07-04T08:05:10.825Z,66.63
2018-07-04T08:08:34.457Z,66.57
2018-07-04T08:11:56.881Z,65.86
2018-07-04T08:15:18.793Z,66.34
2018-07-04T08:18:41.408Z,66.49
2018-07-04T08:22:04.305Z,65.35
2018-07-04T08:25:26.132Z,65.23
2018-07-04T08:28:48.086Z,65.14
2018-07-04T08:32:09.993Z,65.53
2018-07-04T08:35:31.961Z,66.28
2018-07-04T08:38:53.720Z,66.07
2018-07-04T08:42:15.792Z,64.16
2018-07-04T08:45:38.624Z,64.16
2018-07-04T08:49:01.389Z,64.74
2018-07-04T08:52:24.072Z,62.99
2018-07-04T08:55:46.868Z,63.37
2018-07-04T08:59:10.791Z,63.41
2018-07-04T09:02:33.254Z,63.35
2018-07-04T09:05:57.117Z,63.00
2018-07-04T09:09:19.593Z,62.74
2018-07-04T09:12:42.237Z,60.84
2018-07-04T09:16:04.124Z,61.25
2018-07-04T09:19:26.733Z,61.97
2018-07-04T09:22:49.350Z,60.07
2018-07-04T09:26:12.213Z,59.56
2018-07-04T09:29:34.880Z,60.31
2018-07-04T09:32:56.517Z,61.46
2018-07-04T09:36:18.361Z,60.31
2018-07-04T09:39:40.127Z,59.79
2018-07-04T09:43:02.821Z,56.00
2018-07-04T09:46:24.537Z,58.28
2018-07-04T09:49:47.454Z,56.75
2018-07-04T09:53:10.178Z,55.98
2018-07-04T09:56:32.081Z,54.08
2018-07-04T09:59:55.240Z,55.04
2018-07-04T10:03:17.925Z,52.55
2018-07-04T10:06:41.061Z,51.79
2018-07-04T10:10:02.794Z,50.63
2018-07-04T10:13:24.798Z,51.66
2018-07-04T10:16:47.166Z,51.50
2018-07-04T10:20:09.960Z,51.72
2018-07-04T10:23:32.874Z,51.56
2018-07-04T10:26:55.669Z,50.97
2018-07-04T10:30:17.605Z,50.75
2018-07-04T10:33:39.293Z,49.75
2018-07-04T10:37:01.977Z,49.92
2018-07-04T10:40:24.957Z,49.29
2018-07-04T10:43:47.871Z,49.39
2018-07-04T10:47:10.841Z,49.63
2018-07-04T10:50:33.348Z,48.06
2018-07-04T10:53:55.944Z,50.07
2018-07-04T10:57:17.762Z,49.94
2018-07-04T11:00:39.590Z,50.00
2018-07-04T11:04:01.527Z,47.67
2018-07-04T11:07:24.517Z,46.55
2018-07-04T11:10:46.969Z,48.05
2018-07-04T11:14:09.773Z,49.31
2018-07-04T11:17:32.617Z,50.45
2018-07-04T11:20:55.305Z,50.67
2018-07-04T11:24:18.165Z,49.08
2018-07-04T11:27:40.760Z,49.05
2018-07-04T11:31:03.557Z,50.18
2018-07-04T11:34:25.432Z,50.14
2018-07-04T11:37:48.281Z,48.21
2018-07-04T11:41:10.873Z,48.56
2018-07-04T11:44:32.722Z,49.36
2018-07-04T11:47:43.186Z,48.66
2018-07-04T11:50:46.678Z,48.35
2018-07-04T11:53:50.885Z,49.36
2018-07-04T11:56:55.397Z,49.83
2018-07-04T11:59:59.600Z,49.27
2018-07-04T12:03:20.270Z,48.14
2018-07-04T12:06:37.136Z,49.47
2018-07-04T12:09:47.809Z,48.27
2018-07-04T12:12:52.160Z,48.62
2018-07-04T12:15:55.674Z,48.49
2018-07-04T12:18:59.682Z,48.00
2018-07-04T12:22:04.216Z,48.97
2018-07-04T12:25:08.435Z,48.94
2018-07-04T12:28:11.945Z,49.31
2018-07-04T12:31:16.313Z,48.57
2018-07-04T12:34:20.006Z,48.43
2018-07-04T12:37:23.520Z,48.54
2018-07-04T12:40:27.862Z,48.57
2018-07-04T12:43:31.607Z,46.80
2018-07-04T12:46:35.309Z,47.19
2018-07-04T12:49:39.301Z,45.35
2018-07-04T12:52:42.799Z,46.54
2018-07-04T12:55:58.425Z,47.42
2018-07-04T12:59:20.853Z,46.45
2018-07-04T13:02:42.722Z,46.99
2018-07-04T13:06:04.696Z,47.04
2018-07-04T13:09:26.555Z,46.53
2018-07-04T13:12:48.264Z,45.76
2018-07-04T13:16:10.548Z,45.68
2018-07-04T13:19:33.648Z,45.64
2018-07-04T13:22:56.504Z,46.42
2018-07-04T13:26:19.024Z,45.27
2018-07-04T13:29:42.685Z,43.70
2018-07-04T13:33:05.173Z,44.87
2018-07-04T13:36:27.040Z,43.82
2018-07-04T13:39:50.090Z,43.02
2018-07-04T13:43:13.012Z,44.00
2018-07-04T13:46:35.545Z,43.33
2018-07-04T13:49:57.293Z,43.42
2018-07-04T13:53:19.329Z,43.11
2018-07-04T13:56:42.068Z,43.28
2018-07-04T14:00:05.077Z,42.12
2018-07-04T14:03:27.556Z,42.09
2018-07-04T14:06:50.584Z,44.04
2018-07-04T14:10:13.164Z,43.10
2018-07-04T14:13:35.047Z,43.29
2018-07-04T14:16:56.780Z,43.29
2018-07-04T14:20:18.512Z,44.44
2018-07-04T14:23:40.930Z,44.44
2018-07-04T14:27:03.613Z,43.76
2018-07-04T14:30:25.615Z,43.26
2018-07-04T14:33:48.393Z,41.86
2018-07-04T14:37:11.226Z,44.29
2018-07-04T14:40:33.976Z,42.98
2018-07-04T14:43:57.017Z,43.31
2018-07-04T14:47:19.742Z,40.71
2018-07-04T14:50:42.496Z,41.20
2018-07-04T14:54:05.482Z,40.88
2018-07-04T14:57:27.294Z,41.49
2018-07-04T15:00:48.990Z,40.22
2018-07-04T15:04:11.063Z,40.68
2018-07-04T15:07:33.928Z,41.49
2018-07-04T15:10:56.875Z,42.18
2018-07-04T15:14:19.687Z,42.24
2018-07-04T15:17:42.203Z,40.73
2018-07-04T15:21:03.912Z,40.99
2018-07-04T15:24:25.833Z,40.86
2018-07-04T15:27:47.504Z,40.39
2018-07-04T15:31:09.197Z,40.40
2018-07-04T15:34:31.116Z,39.74
2018-07-04T15:37:54.124Z,40.43
2018-07-04T15:41:16.664Z,39.86
2018-07-04T15:44:39.516Z,39.89
2018-07-04T15:48:02.327Z,40.70
2018-07-04T15:51:24.657Z,40.42
2018-07-04T15:54:47.197Z,39.13
2018-07-04T15:58:09.924Z,39.15
2018-07-04T16:01:32.568Z,39.43
2018-07-04T16:04:55.477Z,39.25
2018-07-04T16:08:18.264Z,39.30
2018-07-04T16:11:41.017Z,38.52
2018-07-04T16:15:02.928Z,38.97
2018-07-04T16:18:25.873Z,39.57
2018-07-04T16:21:48.481Z,39.06
2018-07-04T16:25:11.465Z,38.29
2018-07-04T16:28:34.457Z,39.28
2018-07-04T16:31:57.288Z,38.56
2018-07-04T16:35:20.026Z,38.60
2018-07-04T16:38:42.828Z,38.62
2018-07-04T16:42:05.604Z,38.55
2018-07-04T16:45:28.287Z,39.05
2018-07-04T16:48:50.019Z,38.85
2018-07-04T16:52:11.860Z,39.35
2018-07-04T16:55:34.749Z,39.11
2018-07-04T16:58:57.787Z,38.48
2018-07-04T17:02:20.484Z,37.56
2018-07-04T17:05:43.444Z,39.06
2018-07-04T17:09:05.385Z,39.28
2018-07-04T17:12:28.296Z,39.06
2018-07-04T17:15:50.788Z,40.64
2018-07-04T17:19:12.673Z,39.69
2018-07-04T17:22:34.545Z,40.03
2018-07-04T17:25:56.553Z,40.48
2018-07-04T17:29:19.883Z,40.68
2018-07-04T17:32:41.639Z,41.86
2018-07-04T17:36:04.234Z,42.14
2018-07-04T17:39:26.100Z,43.21
2018-07-04T17:42:48.441Z,42.66
2018-07-04T17:46:10.288Z,43.47
2018-07-04T17:49:33.024Z,43.92
2018-07-04T17:52:54.793Z,44.41
2018-07-04T17:56:16.712Z,45.05
2018-07-04T17:59:38.751Z,44.87
2018-07-04T18:03:01.918Z,44.55
2018-07-04T18:06:24.352Z,45.36
2018-07-04T18:09:48.437Z,45.03
2018-07-04T18:13:11.003Z,45.87
2018-07-04T18:16:33.925Z,46.17
2018-07-04T18:19:56.646Z,46.61
2018-07-04T18:23:19.533Z,45.73
2018-07-04T18:26:42.373Z,46.11
2018-07-04T18:30:05.195Z,46.18
2018-07-04T18:33:26.888Z,47.72
2018-07-04T18:36:49.511Z,47.39
2018-07-04T18:40:12.378Z,47.62
2018-07-04T18:43:35.164Z,48.10
2018-07-04T18:46:57.842Z,47.25
2018-07-04T18:50:19.749Z,47.13
2018-07-04T18:53:42.590Z,47.49
2018-07-04T18:57:05.599Z,47.42
2018-07-04T19:00:28.305Z,48.16
2018-07-04T19:03:51.230Z,47.57
2018-07-04T19:07:13.089Z,47.34
2018-07-04T19:10:35.856Z,47.93
2018-07-04T19:13:57.745Z,48.16
2018-07-04T19:17:19.458Z,47.37
2018-07-04T19:20:41.237Z,47.81
2018-07-04T19:24:02.960Z,47.09
2018-07-04T19:27:24.705Z,47.33
2018-07-04T19:30:46.615Z,48.55
2018-07-04T19:34:09.077Z,48.26
2018-07-04T19:37:31.105Z,48.50
2018-07-04T19:40:52.994Z,49.12
2018-07-04T19:44:15.972Z,48.68
2018-07-04T19:47:38.701Z,48.71
2018-07-04T19:51:01.355Z,48.63
2018-07-04T19:54:23.105Z,49.60
2018-07-04T19:57:44.942Z,50.05
2018-07-04T20:01:06.697Z,49.23
2018-07-04T20:04:29.449Z,49.46
2018-07-04T20:07:52.145Z,49.93
2018-07-04T20:11:14.827Z,49.93
2018-07-04T20:14:36.701Z,50.75
2018-07-04T20:17:58.699Z,50.14
2018-07-04T20:21:20.920Z,50.45
2018-07-04T20:24:43.894Z,50.77
2018-07-04T20:28:06.558Z,50.74
2018-07-04T20:31:28.255Z,50.71
2018-07-04T20:34:50.050Z,50.31
2018-07-04T20:38:12.035Z,51.20
2018-07-04T20:41:34.167Z,51.31
2018-07-04T20:44:56.763Z,50.22
2018-07-04T20:48:18.491Z,51.27
2018-07-04T20:51:40.192Z,51.23
2018-07-04T20:55:01.937Z,51.37
2018-07-04T20:58:23.598Z,51.27
2018-07-04T21:01:46.309Z,51.95
2018-07-04T21:05:09.588Z,52.25
2018-07-04T21:08:31.536Z,51.92
2018-07-04T21:11:53.854Z,52.34
2018-07-04T21:15:15.624Z,51.72
2018-07-04T21:18:37.437Z,52.29
2018-07-04T21:21:59.191Z,52.86
2018-07-04T21:25:20.972Z,52.80
2018-07-04T21:28:42.661Z,52.62
2018-07-04T21:32:05.060Z,52.65
2018-07-04T21:35:27.780Z,53.06
2018-07-04T21:38:50.592Z,53.52
2018-07-04T21:42:13.216Z,53.74
2018-07-04T21:45:36.192Z,53.49
2018-07-04T21:48:58.716Z,54.30
2018-07-04T21:52:21.560Z,54.61
2018-07-04T21:55:43.532Z,54.22
2018-07-04T21:59:06.264Z,55.16
2018-07-04T22:02:29.064Z,54.71
2018-07-04T22:05:50.805Z,55.64
2018-07-04T22:09:12.833Z,55.73
2018-07-04T22:12:35.200Z,56.31
2018-07-04T22:15:57.930Z,56.90
2018-07-04T22:19:20.393Z,56.01
2018-07-04T22:22:43.033Z,56.63
2018-07-04T22:26:05.687Z,56.63
2018-07-04T22:29:28.276Z,56.66
2018-07-04T22:32:51.280Z,57.28
2018-07-04T22:36:13.834Z,58.05
2018-07-04T22:39:35.549Z,57.16
2018-07-04T22:42:57.520Z,57.85
2018-07-04T22:46:19.388Z,57.83
2018-07-04T22:49:41.097Z,57.59
2018-07-04T22:53:03.540Z,58.89
2018-07-04T22:56:26.212Z,59.03
2018-07-04T22:59:49.098Z,58.95
2018-07-04T23:03:12.069Z,59.22
2018-07-04T23:06:33.926Z,59.19
2018-07-04T23:09:55.760Z,60.12
2018-07-04T23:13:17.633Z,59.91
2018-07-04T23:16:39.466Z,59.67
2018-07-04T23:20:01.351Z,60.54
2018-07-04T23:23:23.953Z,60.18
2018-07-04T23:26:45.987Z,61.19
2018-07-04T23:30:08.764Z,61.02
2018-07-04T23:33:31.492Z,61.10
2018-07-04T23:36:53.324Z,61.27
2018-07-04T23:40:15.373Z,60.62
2018-07-04T23:43:38.560Z,61.77
2018-07-04T23:47:02.341Z,61.97
2018-07-04T23:50:25.083Z,61.03
2018-07-04T23:53:47.705Z,61.54
2018-07-04T23:57:10.205Z,61.69
